PWSweather.com
Personal Weather Stations
Station Observations
MUTNCOVE
Mouton Cove, Abbeville, LA 70510

Mouton CoveAbbeville, LA 70510

Lat: 29.875016, Lon: -92.218675

Elevation: 32

Station Type: Acurite 5-in-1

http://www.moutoncoveweather.com/

Latest ConditionsUpdated 10:00:02 PM CDT Thursday, Apr 18, 2019
Currently Today's Max Today's Min Today's Average
Temperature 65.1°F18.4°C 75.9°F24.4°C 63.5°F17.5°C 69.6°F20.9°C
Dew Point 64.8°F18.2°C 75.6°F24.2°C 63.2°F17.3°C 69.3°F20.7°C
Winds 6.9 mph W11.1 kmh W 21.9 mph -35.2 kmh - - 6.6 mph 10.6 kmh
Wind Gusts 9.2 mph14.8 kmh 24.2 mph38.9 kmh - -
Humidity 99% 99% 99% 99%
Pressure 29.89 in1012.2 mb 29.96 in1014.6 mb 29.75 in1007.5 mb -
Precipitation - 2.40 in61.0 mm - -
Hour Temp Dew Point Humidity Winds Wind Gusts Pressure Precip Precip Rate Daily Precip Total
10:00 PM 65.1°F18.4°C 64.8°F18.2°C 99% 6.9 mph W11.1 kmh W 9.2 mph14.8 kmh 29.89 in1012.2 mb - 0.00 in0.0 mm 2.40 in61.0 mm
09:30 PM 64.6°F18.1°C 64.3°F17.9°C 99% 5.8 mph SW9.3 kmh SW 6.9 mph11.1 kmh 29.87 in1011.5 mb - 0.00 in0.0 mm 2.40 in61.0 mm
09:00 PM 64.2°F17.9°C 63.9°F17.7°C 99% 4.6 mph SW7.4 kmh SW 4.6 mph7.4 kmh 29.86 in1011.2 mb - 0.00 in0.0 mm 2.40 in61.0 mm
08:30 PM 64.6°F18.1°C 64.3°F17.9°C 99% 3.5 mph WSW5.6 kmh WSW 3.5 mph5.6 kmh 29.84 in1010.5 mb - 0.01 in0.3 mm 2.40 in61.0 mm
08:00 PM 65.3°F18.5°C 65.0°F18.3°C 99% 5.8 mph NW9.3 kmh NW 5.8 mph9.3 kmh 29.82 in1009.8 mb - 0.01 in0.3 mm 2.40 in61.0 mm
07:30 PM 65.8°F18.8°C 65.5°F18.6°C 99% 6.9 mph NNW11.1 kmh NNW 6.9 mph11.1 kmh 29.80 in1009.1 mb - 0.00 in0.0 mm 2.39 in60.7 mm
07:00 PM 67.3°F19.6°C 67.0°F19.4°C 99% 6.9 mph NW11.1 kmh NW 8.1 mph13.0 kmh 29.78 in1008.5 mb - 0.00 in0.0 mm 2.39 in60.7 mm
06:30 PM 65.8°F18.8°C 65.5°F18.6°C 99% 6.9 mph N11.1 kmh N 8.1 mph13.0 kmh 29.78 in1008.5 mb - 0.02 in0.5 mm 2.39 in60.7 mm
06:00 PM 64.8°F18.2°C 64.5°F18.1°C 99% 11.5 mph NNW18.5 kmh NNW 15.0 mph24.1 kmh 29.77 in1008.1 mb - 0.02 in0.5 mm 2.39 in60.7 mm
05:30 PM 64.6°F18.1°C 64.3°F17.9°C 99% 6.9 mph N11.1 kmh N 8.1 mph13.0 kmh 29.76 in1007.8 mb - 0.02 in0.5 mm 2.37 in60.2 mm
05:00 PM 64.2°F17.9°C 63.9°F17.7°C 99% 6.9 mph N11.1 kmh N 6.9 mph11.1 kmh 29.77 in1008.1 mb - 0.08 in2.0 mm 2.37 in60.2 mm
04:30 PM 64.2°F17.9°C 63.9°F17.7°C 99% 5.8 mph NE9.3 kmh NE 5.8 mph9.3 kmh 29.76 in1007.8 mb - 0.07 in1.8 mm 2.36 in59.9 mm
04:00 PM 64.4°F18.0°C 64.1°F17.8°C 99% 5.8 mph ENE9.3 kmh ENE 5.8 mph9.3 kmh 29.75 in1007.5 mb - 0.00 in0.0 mm 2.29 in58.2 mm
03:30 PM 64.4°F18.0°C 64.1°F17.8°C 99% 4.6 mph E7.4 kmh E 4.6 mph7.4 kmh 29.75 in1007.5 mb - 0.74 in18.8 mm 2.29 in58.2 mm
03:00 PM 63.9°F17.7°C 63.6°F17.6°C 99% 5.8 mph E9.3 kmh E 5.8 mph9.3 kmh 29.76 in1007.8 mb - 1.20 in30.5 mm 2.29 in58.2 mm
02:30 PM 63.5°F17.5°C 63.2°F17.3°C 99% 5.8 mph NE9.3 kmh NE 8.1 mph13.0 kmh 29.75 in1007.5 mb - 1.07 in27.2 mm 1.60 in40.6 mm
02:00 PM 64.4°F18.0°C 64.1°F17.8°C 99% 6.9 mph NE11.1 kmh NE 8.1 mph13.0 kmh 29.77 in1008.1 mb - 1.01 in25.7 mm 1.10 in27.9 mm
01:30 PM 65.5°F18.6°C 65.2°F18.4°C 99% 21.9 mph NNW35.2 kmh NNW 24.2 mph38.9 kmh 29.81 in1009.5 mb - 0.55 in14.0 mm 0.57 in14.5 mm
01:00 PM 68.2°F20.1°C 67.9°F19.9°C 99% 15.0 mph NW24.1 kmh NW 23.0 mph37.0 kmh 29.80 in1009.1 mb - 0.09 in2.3 mm 0.10 in2.5 mm
12:30 PM 73.4°F23.0°C 73.1°F22.8°C 99% 4.6 mph SW7.4 kmh SW 5.8 mph9.3 kmh 29.78 in1008.5 mb - 0.01 in0.3 mm 0.02 in0.5 mm
12:00 PM 73.4°F23.0°C 73.1°F22.8°C 99% 5.8 mph SSE9.3 kmh SSE 8.1 mph13.0 kmh 29.78 in1008.5 mb - 0.00 in0.0 mm 0.01 in0.3 mm
11:30 AM 73.2°F22.9°C 72.9°F22.7°C 99% 8.1 mph ESE13.0 kmh ESE 17.3 mph27.8 kmh 29.78 in1008.5 mb - 0.01 in0.3 mm 0.01 in0.3 mm
11:00 AM 72.9°F22.7°C 72.6°F22.6°C 99% 6.9 mph ESE11.1 kmh ESE 9.2 mph14.8 kmh 29.79 in1008.8 mb - 0.01 in0.3 mm 0.01 in0.3 mm
10:30 AM 73.8°F23.2°C 73.5°F23.1°C 99% 6.9 mph ESE11.1 kmh ESE 9.2 mph14.8 kmh 29.81 in1009.5 mb - 0.00 in0.0 mm 0.00 in0.0 mm
10:00 AM 74.1°F23.4°C 73.8°F23.2°C 99% 6.9 mph E11.1 kmh E 9.2 mph14.8 kmh 29.83 in1010.2 mb - 0.00 in0.0 mm 0.00 in0.0 mm
09:00 AM 75.9°F24.4°C 75.6°F24.2°C 99% 5.8 mph ESE9.3 kmh ESE 8.1 mph13.0 kmh 29.85 in1010.8 mb - 0.00 in0.0 mm 0.00 in0.0 mm
08:30 AM 75.2°F24.0°C 74.9°F23.8°C 99% 3.5 mph E5.6 kmh E 8.1 mph13.0 kmh 29.87 in1011.5 mb - 0.00 in0.0 mm 0.00 in0.0 mm
08:00 AM 74.5°F23.6°C 74.2°F23.4°C 99% 3.5 mph S5.6 kmh S 5.8 mph9.3 kmh 29.90 in1012.5 mb - 0.00 in0.0 mm 0.00 in0.0 mm
07:30 AM 73.4°F23.0°C 73.1°F22.8°C 99% 3.5 mph SE5.6 kmh SE 3.5 mph5.6 kmh 29.89 in1012.2 mb - 0.00 in0.0 mm 0.00 in0.0 mm
07:00 AM 72.9°F22.7°C 72.6°F22.6°C 99% 3.5 mph ENE5.6 kmh ENE 5.8 mph9.3 kmh 29.89 in1012.2 mb - 0.00 in0.0 mm 0.00 in0.0 mm
06:30 AM 72.9°F22.7°C 72.6°F22.6°C 99% 4.6 mph SSE7.4 kmh SSE 4.6 mph7.4 kmh 29.88 in1011.9 mb - 0.00 in0.0 mm 0.00 in0.0 mm
06:00 AM 72.8°F22.7°C 72.5°F22.5°C 99% 4.6 mph E7.4 kmh E 5.8 mph9.3 kmh 29.86 in1011.2 mb - 0.00 in0.0 mm 0.00 in0.0 mm
05:30 AM 72.5°F22.5°C 72.2°F22.3°C 99% 8.1 mph WSW13.0 kmh WSW 11.5 mph18.5 kmh 29.84 in1010.5 mb - 0.00 in0.0 mm 0.00 in0.0 mm
05:00 AM 72.3°F22.4°C 72.0°F22.2°C 99% 5.8 mph S9.3 kmh S 6.9 mph11.1 kmh 29.85 in1010.8 mb - 0.00 in0.0 mm 0.00 in0.0 mm
04:30 AM 72.0°F22.2°C 71.7°F22.1°C 99% 4.6 mph SE7.4 kmh SE 6.9 mph11.1 kmh 29.84 in1010.5 mb - 0.00 in0.0 mm 0.00 in0.0 mm
04:00 AM 72.0°F22.2°C 71.7°F22.1°C 99% 4.6 mph SE7.4 kmh SE 4.6 mph7.4 kmh 29.85 in1010.8 mb - 0.00 in0.0 mm 0.00 in0.0 mm
03:30 AM 72.1°F22.3°C 71.8°F22.1°C 99% 6.9 mph ESE11.1 kmh ESE 9.2 mph14.8 kmh 29.85 in1010.8 mb - 0.00 in0.0 mm 0.00 in0.0 mm
03:00 AM 72.1°F22.3°C 71.8°F22.1°C 99% 6.9 mph SE11.1 kmh SE 9.2 mph14.8 kmh 29.87 in1011.5 mb - 0.00 in0.0 mm 0.00 in0.0 mm
02:30 AM 72.3°F22.4°C 72.0°F22.2°C 99% 5.8 mph SE9.3 kmh SE 10.4 mph16.7 kmh 29.88 in1011.9 mb - 0.00 in0.0 mm 0.00 in0.0 mm
02:00 AM 72.3°F22.4°C 72.0°F22.2°C 99% 8.1 mph ESE13.0 kmh ESE 12.7 mph20.4 kmh 29.90 in1012.5 mb - 0.00 in0.0 mm 0.00 in0.0 mm
01:30 AM 72.5°F22.5°C 72.2°F22.3°C 99% 8.1 mph ESE13.0 kmh ESE 11.5 mph18.5 kmh 29.92 in1013.2 mb - 0.00 in0.0 mm 0.00 in0.0 mm
01:00 AM 72.9°F22.7°C 72.6°F22.6°C 99% 6.9 mph SE11.1 kmh SE 6.9 mph11.1 kmh 29.94 in1013.9 mb - 0.00 in0.0 mm 0.00 in0.0 mm
12:30 AM 72.9°F22.7°C 72.6°F22.6°C 99% 6.9 mph SE11.1 kmh SE 10.4 mph16.7 kmh 29.94 in1013.9 mb - 0.00 in0.0 mm 0.00 in0.0 mm
12:00 AM 72.9°F22.7°C 72.6°F22.6°C 99% 5.8 mph SE9.3 kmh SE 5.8 mph9.3 kmh 29.96 in1014.6 mb - 0.00 in0.0 mm 0.00 in0.0 mm